createdAt,value
2023-05-05T00:01:48.506Z,51.93
2023-05-05T00:04:40.540Z,52.01
2023-05-05T00:07:32.586Z,51.96
2023-05-05T00:10:24.977Z,52.01
2023-05-05T00:12:59.778Z,52.10
2023-05-05T00:15:53.453Z,52.17
2023-05-05T00:18:45.734Z,52.15
2023-05-05T00:21:37.732Z,52.18
2023-05-05T00:24:29.696Z,52.27
2023-05-05T00:27:21.647Z,52.31
2023-05-05T00:30:14.456Z,52.37
2023-05-05T00:33:02.981Z,52.51
2023-05-05T00:35:55.004Z,52.57
2023-05-05T00:38:47.077Z,52.65
2023-05-05T00:41:39.004Z,52.89
2023-05-05T00:44:43.177Z,53.11
2023-05-05T00:47:35.919Z,53.16
2023-05-05T00:50:30.170Z,53.31
2023-05-05T00:53:22.426Z,53.33
2023-05-05T00:56:15.656Z,53.42
2023-05-05T00:59:07.816Z,53.47
2023-05-05T01:01:42.767Z,53.48
2023-05-05T01:04:34.810Z,53.72
2023-05-05T01:07:37.570Z,53.70
2023-05-05T01:10:36.903Z,53.94
2023-05-05T01:13:38.399Z,53.96
2023-05-05T01:16:34.244Z,54.14
2023-05-05T01:19:45.070Z,54.05
2023-05-05T01:22:43.130Z,54.23
2023-05-05T01:25:50.362Z,54.25
2023-05-05T01:29:17.404Z,54.15
2023-05-05T01:32:11.854Z,54.45
2023-05-05T01:35:09.102Z,54.63
2023-05-05T01:38:09.953Z,54.87
2023-05-05T01:40:47.837Z,55.04
2023-05-05T01:43:38.876Z,55.08
2023-05-05T01:46:31.435Z,55.19
2023-05-05T01:49:23.888Z,55.16
2023-05-05T01:52:17.847Z,55.22
2023-05-05T01:55:12.502Z,55.49
2023-05-05T01:58:06.838Z,55.53
2023-05-05T02:01:00.749Z,55.54
2023-05-05T02:03:55.799Z,55.65
2023-05-05T02:06:50.445Z,55.77
2023-05-05T02:09:43.653Z,55.84
2023-05-05T02:12:38.314Z,55.75
2023-05-05T02:15:31.426Z,55.78
2023-05-05T02:18:10.494Z,55.83
2023-05-05T02:21:02.507Z,55.97
2023-05-05T02:23:55.677Z,55.92
2023-05-05T02:26:51.346Z,55.89
2023-05-05T02:29:48.690Z,55.80
2023-05-05T02:32:45.775Z,56.07
2023-05-05T02:35:41.207Z,55.92
2023-05-05T02:38:34.964Z,56.03
2023-05-05T02:41:28.138Z,56.03
2023-05-05T02:44:23.167Z,55.88
2023-05-05T02:47:07.848Z,55.85
2023-05-05T02:49:59.889Z,55.77
2023-05-05T02:52:51.923Z,55.75
2023-05-05T02:55:48.731Z,55.79
2023-05-05T02:58:47.742Z,55.99
2023-05-05T03:01:48.847Z,55.95
2023-05-05T03:04:44.022Z,56.00
2023-05-05T03:07:26.201Z,55.83
2023-05-05T03:10:22.279Z,55.90
2023-05-05T03:13:17.854Z,55.93
2023-05-05T03:16:12.118Z,56.01
2023-05-05T03:19:04.352Z,56.02
2023-05-05T03:21:57.327Z,56.05
2023-05-05T03:24:41.154Z,56.15
2023-05-05T03:27:33.310Z,56.22
2023-05-05T03:30:25.532Z,56.29
2023-05-05T03:33:18.341Z,56.30
2023-05-05T03:36:11.570Z,56.34
2023-05-05T03:39:03.695Z,56.48
2023-05-05T03:41:55.811Z,56.51
2023-05-05T03:44:47.844Z,56.80
2023-05-05T03:47:39.840Z,56.88
2023-05-05T03:50:31.861Z,57.09
2023-05-05T03:53:23.916Z,57.19
2023-05-05T03:56:16.156Z,57.26
2023-05-05T03:59:08.762Z,57.52
2023-05-05T04:02:00.811Z,57.40
2023-05-05T04:04:52.889Z,57.45
2023-05-05T04:07:44.844Z,57.34
2023-05-05T04:10:36.815Z,57.16
2023-05-05T04:13:28.769Z,57.09
2023-05-05T04:16:20.875Z,56.87
2023-05-05T04:19:14.041Z,57.11
2023-05-05T04:22:05.978Z,57.07
2023-05-05T04:24:57.945Z,56.93
2023-05-05T04:27:50.171Z,56.85
2023-05-05T04:30:42.195Z,56.70
2023-05-05T04:33:34.167Z,56.34
2023-05-05T04:36:26.116Z,56.30
2023-05-05T04:39:07.175Z,56.22
2023-05-05T04:41:59.349Z,56.17
2023-05-05T04:44:51.323Z,56.22
2023-05-05T04:47:43.432Z,56.14
2023-05-05T04:50:36.991Z,55.99
2023-05-05T04:53:28.942Z,56.02
2023-05-05T04:56:20.957Z,55.94
2023-05-05T04:59:12.938Z,55.82
2023-05-05T05:02:04.956Z,55.53
2023-05-05T05:04:57.074Z,55.11
2023-05-05T05:07:49.036Z,54.73
2023-05-05T05:10:41.454Z,54.52
2023-05-05T05:13:33.807Z,54.14
2023-05-05T05:16:27.148Z,53.87
2023-05-05T05:19:19.187Z,53.41
2023-05-05T05:22:11.136Z,53.25
2023-05-05T05:25:03.113Z,53.37
2023-05-05T05:28:06.124Z,53.31
2023-05-05T05:31:01.659Z,53.76
2023-05-05T05:33:53.632Z,53.54
2023-05-05T05:36:45.636Z,52.80
2023-05-05T05:39:37.603Z,52.21
2023-05-05T05:42:29.646Z,50.49
2023-05-05T05:45:21.750Z,48.53
2023-05-05T05:47:58.778Z,47.04
2023-05-05T05:50:50.715Z,45.74
2023-05-05T05:53:42.646Z,43.79
2023-05-05T05:56:34.700Z,42.34
2023-05-05T05:59:26.712Z,40.52
2023-05-05T06:02:19.149Z,38.79
2023-05-05T06:05:13.061Z,37.24
2023-05-05T06:08:05.288Z,35.66
2023-05-05T06:10:57.251Z,34.61
2023-05-05T06:13:49.197Z,33.69
2023-05-05T06:16:41.199Z,32.30
2023-05-05T06:19:34.327Z,31.43
2023-05-05T06:22:26.321Z,30.26
2023-05-05T06:25:18.565Z,29.54
2023-05-05T06:28:10.457Z,28.42
2023-05-05T06:30:52.837Z,27.71
2023-05-05T06:33:44.946Z,26.33
2023-05-05T06:36:37.103Z,25.79
2023-05-05T06:39:29.237Z,24.57
2023-05-05T06:42:21.419Z,23.31
2023-05-05T06:45:14.091Z,22.57
2023-05-05T06:47:55.597Z,21.55
2023-05-05T06:50:47.811Z,21.42
2023-05-05T06:53:39.867Z,20.90
2023-05-05T06:56:32.957Z,20.60
2023-05-05T06:59:24.983Z,20.24
2023-05-05T07:02:16.958Z,20.33
2023-05-05T07:05:10.440Z,20.57
2023-05-05T07:08:02.480Z,20.64
2023-05-05T07:10:54.521Z,21.33
2023-05-05T07:13:46.502Z,21.99
2023-05-05T07:16:38.492Z,22.68
2023-05-05T07:19:30.598Z,23.24
2023-05-05T07:22:22.525Z,23.37
2023-05-05T07:25:14.514Z,24.04
2023-05-05T07:28:07.306Z,25.01
2023-05-05T07:30:59.274Z,25.93
2023-05-05T07:33:51.279Z,26.27
2023-05-05T07:36:44.113Z,26.88
2023-05-05T07:39:19.448Z,27.60
2023-05-05T07:42:11.731Z,28.06
2023-05-05T07:45:03.537Z,28.95
2023-05-05T07:47:55.727Z,28.95
2023-05-05T07:50:47.774Z,29.48
2023-05-05T07:53:39.974Z,29.71
2023-05-05T07:56:31.979Z,30.20
2023-05-05T07:59:24.005Z,31.04
2023-05-05T08:02:16.365Z,30.91
2023-05-05T08:05:10.068Z,31.16
2023-05-05T08:08:03.540Z,31.54
2023-05-05T08:10:55.505Z,31.66
2023-05-05T08:13:47.558Z,31.97
2023-05-05T08:16:41.890Z,31.83
2023-05-05T08:19:33.873Z,32.14
2023-05-05T08:22:26.359Z,32.11
2023-05-05T08:25:27.528Z,32.10
2023-05-05T08:28:19.491Z,32.18
2023-05-05T08:30:53.936Z,31.85
2023-05-05T08:33:45.929Z,32.04
2023-05-05T08:36:38.125Z,31.74
2023-05-05T08:39:23.570Z,31.76
2023-05-05T08:42:25.446Z,31.61
2023-05-05T08:45:27.481Z,31.74
2023-05-05T08:48:04.047Z,32.26
2023-05-05T08:51:01.360Z,32.06
2023-05-05T08:54:02.070Z,31.62
2023-05-05T08:56:56.288Z,31.74
2023-05-05T08:59:49.009Z,31.84
2023-05-05T09:02:42.842Z,31.26
2023-05-05T09:05:34.985Z,31.01
2023-05-05T09:08:27.329Z,30.91
2023-05-05T09:11:19.372Z,31.26
2023-05-05T09:14:11.304Z,31.23
2023-05-05T09:17:05.320Z,30.53
2023-05-05T09:20:04.457Z,29.85
2023-05-05T09:22:58.015Z,30.38
2023-05-05T09:26:09.197Z,29.89
2023-05-05T09:29:01.582Z,29.24
2023-05-05T09:32:08.725Z,29.38
2023-05-05T09:35:02.202Z,29.33
2023-05-05T09:37:54.339Z,29.62
2023-05-05T09:40:50.506Z,28.69
2023-05-05T09:43:31.362Z,28.30
2023-05-05T09:46:23.367Z,28.86
2023-05-05T09:49:17.998Z,28.72
2023-05-05T09:52:16.537Z,29.04
2023-05-05T09:55:18.460Z,28.10
2023-05-05T09:58:24.336Z,28.01
2023-05-05T10:01:24.615Z,28.37
2023-05-05T10:04:30.890Z,28.09
2023-05-05T10:07:26.746Z,27.89
2023-05-05T10:10:27.510Z,27.30
2023-05-05T10:13:47.601Z,27.16
2023-05-05T10:16:26.295Z,27.61
2023-05-05T10:19:21.990Z,27.79
2023-05-05T10:22:14.296Z,27.59
2023-05-05T10:25:13.585Z,27.38
2023-05-05T10:28:10.660Z,26.76
2023-05-05T10:31:09.997Z,27.30
2023-05-05T10:34:18.795Z,27.27
2023-05-05T10:37:11.524Z,27.08
2023-05-05T10:40:04.415Z,27.01
2023-05-05T10:42:57.099Z,27.07
2023-05-05T10:45:49.403Z,27.36
2023-05-05T10:48:48.093Z,27.47
2023-05-05T10:51:48.040Z,27.36
2023-05-05T10:54:44.862Z,27.46
2023-05-05T10:57:26.634Z,27.57
2023-05-05T11:00:51.554Z,27.61
2023-05-05T11:03:43.658Z,26.80
2023-05-05T11:06:35.691Z,26.46
2023-05-05T11:09:31.375Z,26.21
2023-05-05T11:12:23.343Z,26.01
2023-05-05T11:15:38.732Z,26.10
2023-05-05T11:18:36.661Z,26.49
2023-05-05T11:21:28.834Z,26.70
2023-05-05T11:24:31.278Z,26.89
2023-05-05T11:27:23.328Z,26.89
2023-05-05T11:30:17.638Z,26.54
2023-05-05T11:33:29.015Z,26.42
2023-05-05T11:36:42.116Z,26.47
2023-05-05T11:39:45.436Z,26.69
2023-05-05T11:42:30.240Z,26.86
2023-05-05T11:45:26.380Z,27.12
2023-05-05T11:48:30.476Z,27.34
2023-05-05T11:51:23.143Z,27.53
2023-05-05T11:54:21.463Z,27.65
2023-05-05T11:56:57.245Z,27.52
2023-05-05T11:59:56.918Z,27.03
2023-05-05T12:02:30.542Z,27.13
2023-05-05T12:05:23.146Z,26.97
2023-05-05T12:08:15.406Z,27.55
2023-05-05T12:11:08.398Z,27.47
2023-05-05T12:14:17.184Z,27.81
2023-05-05T12:17:10.914Z,27.23
2023-05-05T12:20:03.233Z,27.48
2023-05-05T12:22:38.339Z,27.35
2023-05-05T12:25:13.324Z,27.10
2023-05-05T12:28:05.552Z,27.27
2023-05-05T12:31:00.467Z,26.98
2023-05-05T12:33:51.397Z,27.79
2023-05-05T12:36:43.708Z,27.45
2023-05-05T12:39:38.885Z,27.29
2023-05-05T12:42:30.986Z,27.30
2023-05-05T12:45:22.995Z,27.56
2023-05-05T12:48:27.019Z,27.54
2023-05-05T12:51:21.316Z,27.44
2023-05-05T12:54:14.020Z,27.91
2023-05-05T12:57:13.289Z,27.97
2023-05-05T13:00:15.969Z,28.18
2023-05-05T13:02:58.087Z,28.36
2023-05-05T13:05:50.151Z,28.15
2023-05-05T13:08:53.308Z,28.52
2023-05-05T13:11:45.310Z,28.57
2023-05-05T13:14:37.605Z,28.11
2023-05-05T13:17:29.817Z,28.42
2023-05-05T13:20:01.522Z,28.43
2023-05-05T13:22:53.679Z,28.27
2023-05-05T13:25:45.787Z,28.23
2023-05-05T13:28:37.951Z,28.18
2023-05-05T13:31:30.235Z,28.28
2023-05-05T13:34:22.263Z,28.16
2023-05-05T13:37:14.488Z,27.94
2023-05-05T13:39:51.798Z,27.83
2023-05-05T13:42:44.061Z,28.27
2023-05-05T13:45:36.162Z,28.74
2023-05-05T13:48:28.223Z,28.88
2023-05-05T13:51:20.420Z,28.84
2023-05-05T13:54:02.973Z,28.64
2023-05-05T13:56:55.002Z,28.87
2023-05-05T13:59:47.663Z,28.59
2023-05-05T14:02:39.685Z,29.06
2023-05-05T14:05:31.731Z,29.14
2023-05-05T14:08:23.950Z,28.50
2023-05-05T14:11:17.990Z,28.92
2023-05-05T14:14:10.057Z,28.97
2023-05-05T14:17:02.106Z,29.45
2023-05-05T14:19:54.692Z,29.06
2023-05-05T14:22:48.766Z,28.87
2023-05-05T14:25:41.532Z,28.85
2023-05-05T14:28:33.556Z,29.05
2023-05-05T14:31:25.611Z,28.91
2023-05-05T14:34:00.229Z,29.10
2023-05-05T14:36:52.240Z,28.82
2023-05-05T14:39:44.263Z,28.76
2023-05-05T14:42:37.521Z,28.65
2023-05-05T14:45:29.703Z,28.72
2023-05-05T14:48:22.754Z,28.76
2023-05-05T14:51:16.840Z,28.69
2023-05-05T14:54:20.484Z,28.76
2023-05-05T14:57:19.335Z,28.68
2023-05-05T15:00:13.280Z,29.04
2023-05-05T15:03:05.576Z,29.29
2023-05-05T15:05:57.772Z,29.12
2023-05-05T15:08:49.801Z,29.40
2023-05-05T15:11:42.102Z,29.64
2023-05-05T15:14:34.135Z,29.43
2023-05-05T15:17:26.299Z,29.74
2023-05-05T15:20:18.288Z,29.70
2023-05-05T15:23:10.346Z,29.95
2023-05-05T15:26:02.472Z,30.11
2023-05-05T15:28:54.663Z,30.26
2023-05-05T15:31:46.717Z,30.49
2023-05-05T15:34:38.883Z,30.32
2023-05-05T15:37:31.272Z,30.30
2023-05-05T15:40:23.746Z,30.37
2023-05-05T15:43:15.771Z,30.34
2023-05-05T15:46:07.764Z,30.39
2023-05-05T15:48:39.644Z,30.28
2023-05-05T15:51:32.338Z,30.35
2023-05-05T15:54:24.379Z,30.18
2023-05-05T15:57:16.558Z,30.38
2023-05-05T16:00:10.430Z,30.86
2023-05-05T16:03:02.506Z,30.88
2023-05-05T16:05:54.775Z,30.71
2023-05-05T16:08:47.722Z,30.82
2023-05-05T16:11:39.765Z,30.59
2023-05-05T16:14:32.794Z,30.66
2023-05-05T16:17:24.873Z,30.92
2023-05-05T16:20:17.217Z,31.04
2023-05-05T16:23:09.211Z,31.02
2023-05-05T16:26:01.381Z,31.09
2023-05-05T16:28:53.442Z,31.18
2023-05-05T16:31:45.395Z,31.10
2023-05-05T16:34:37.496Z,31.13
2023-05-05T16:37:12.678Z,30.99
2023-05-05T16:39:53.396Z,31.26
2023-05-05T16:42:45.352Z,31.40
2023-05-05T16:45:37.480Z,31.28
2023-05-05T16:48:15.083Z,31.51
2023-05-05T16:51:07.114Z,31.58
2023-05-05T16:53:59.178Z,31.88
2023-05-05T16:56:52.229Z,32.06
2023-05-05T16:59:44.265Z,32.13
2023-05-05T17:02:36.357Z,32.38
2023-05-05T17:05:18.410Z,32.28
2023-05-05T17:08:11.850Z,32.34
2023-05-05T17:11:03.759Z,32.51
2023-05-05T17:13:56.028Z,32.55
2023-05-05T17:16:48.309Z,32.59
2023-05-05T17:19:40.363Z,32.65
2023-05-05T17:22:15.206Z,32.82
2023-05-05T17:25:08.443Z,33.03
2023-05-05T17:28:00.607Z,33.18
2023-05-05T17:30:52.579Z,33.22
2023-05-05T17:33:44.534Z,33.57
2023-05-05T17:36:36.498Z,33.49
2023-05-05T17:39:28.468Z,33.60
2023-05-05T17:42:23.113Z,33.90
2023-05-05T17:45:15.436Z,34.03
2023-05-05T17:48:07.938Z,34.24
2023-05-05T17:50:59.921Z,34.40
2023-05-05T17:53:51.876Z,34.49
2023-05-05T17:56:43.830Z,34.63
2023-05-05T17:59:35.803Z,34.95
2023-05-05T18:02:27.908Z,35.19
2023-05-05T18:05:20.670Z,35.34
2023-05-05T18:08:12.676Z,35.55
2023-05-05T18:11:04.690Z,35.60
2023-05-05T18:13:57.307Z,35.76
2023-05-05T18:16:52.086Z,35.92
2023-05-05T18:19:46.640Z,36.17
2023-05-05T18:22:40.476Z,36.36
2023-05-05T18:25:32.469Z,36.55
2023-05-05T18:28:24.547Z,36.60
2023-05-05T18:31:16.911Z,36.85
2023-05-05T18:34:08.890Z,37.01
2023-05-05T18:37:01.005Z,37.17
2023-05-05T18:39:52.975Z,37.29
2023-05-05T18:42:45.488Z,37.49
2023-05-05T18:45:17.460Z,37.61
2023-05-05T18:48:09.847Z,37.60
2023-05-05T18:50:45.713Z,37.80
2023-05-05T18:53:38.304Z,37.82
2023-05-05T18:56:30.876Z,37.82
2023-05-05T18:59:13.044Z,38.00
2023-05-05T19:02:05.185Z,38.15
2023-05-05T19:04:57.312Z,38.18
2023-05-05T19:07:35.858Z,38.23
2023-05-05T19:10:28.151Z,38.24
2023-05-05T19:13:20.181Z,38.21
2023-05-05T19:16:12.383Z,38.42
2023-05-05T19:19:04.494Z,38.23
2023-05-05T19:21:56.767Z,38.33
2023-05-05T19:24:48.846Z,38.32
2023-05-05T19:27:41.173Z,38.35
2023-05-05T19:30:33.204Z,38.32
2023-05-05T19:33:25.653Z,38.17
2023-05-05T19:36:19.395Z,38.35
2023-05-05T19:39:12.613Z,38.63
2023-05-05T19:42:06.563Z,38.86
2023-05-05T19:44:44.266Z,38.47
2023-05-05T19:47:36.767Z,38.72
2023-05-05T19:50:30.776Z,38.99
2023-05-05T19:53:25.203Z,38.93
2023-05-05T19:56:17.875Z,39.04
2023-05-05T19:59:10.593Z,39.33
2023-05-05T20:02:02.859Z,39.55
2023-05-05T20:04:55.413Z,39.75
2023-05-05T20:07:48.347Z,39.95
2023-05-05T20:10:40.923Z,40.18
2023-05-05T20:13:34.301Z,40.45
2023-05-05T20:16:26.831Z,40.45
2023-05-05T20:19:19.171Z,40.75
2023-05-05T20:22:11.104Z,41.07
2023-05-05T20:25:03.134Z,41.42
2023-05-05T20:27:55.119Z,41.60
2023-05-05T20:30:47.101Z,41.72
2023-05-05T20:33:39.095Z,41.81
2023-05-05T20:36:31.309Z,42.27
2023-05-05T20:39:23.279Z,42.53
2023-05-05T20:42:15.264Z,42.67
2023-05-05T20:45:10.625Z,42.73
2023-05-05T20:48:02.705Z,42.72
2023-05-05T20:50:54.677Z,43.06
2023-05-05T20:53:46.983Z,43.26
2023-05-05T20:56:39.493Z,42.85
2023-05-05T20:59:32.192Z,42.72
2023-05-05T21:02:24.303Z,42.29
2023-05-05T21:05:16.616Z,42.22
2023-05-05T21:08:08.966Z,42.24
2023-05-05T21:11:01.494Z,42.11
2023-05-05T21:13:53.431Z,42.27
2023-05-05T21:16:45.510Z,42.07
2023-05-05T21:19:37.617Z,42.11
2023-05-05T21:22:29.609Z,42.20
2023-05-05T21:25:23.159Z,42.51
2023-05-05T21:28:15.096Z,42.90
2023-05-05T21:31:21.194Z,43.11
2023-05-05T21:34:13.564Z,43.13
2023-05-05T21:37:06.117Z,43.18
2023-05-05T21:39:58.257Z,43.06
2023-05-05T21:42:50.247Z,43.24
2023-05-05T21:45:25.059Z,43.42
2023-05-05T21:47:59.737Z,43.65
2023-05-05T21:50:51.786Z,43.76
2023-05-05T21:53:29.205Z,43.80
2023-05-05T21:56:21.215Z,43.80
2023-05-05T21:59:15.214Z,43.70
2023-05-05T22:02:07.961Z,43.86
2023-05-05T22:05:00.116Z,43.94
2023-05-05T22:07:52.093Z,44.09
2023-05-05T22:10:44.114Z,44.28
2023-05-05T22:13:32.461Z,44.38
2023-05-05T22:16:24.509Z,44.55
2023-05-05T22:19:01.608Z,44.69
2023-05-05T22:21:53.683Z,44.90
2023-05-05T22:24:45.680Z,44.99
2023-05-05T22:27:37.760Z,45.19
2023-05-05T22:30:29.806Z,45.33
2023-05-05T22:33:22.205Z,45.42
2023-05-05T22:36:14.254Z,45.57
2023-05-05T22:38:48.849Z,45.72
2023-05-05T22:41:41.077Z,45.84
2023-05-05T22:44:33.842Z,46.00
2023-05-05T22:47:25.872Z,46.02
2023-05-05T22:50:17.989Z,46.14
2023-05-05T22:53:10.063Z,46.18
2023-05-05T22:56:02.100Z,46.36
2023-05-05T22:58:54.076Z,46.45
2023-05-05T23:01:46.057Z,46.67
2023-05-05T23:04:38.135Z,46.72
2023-05-05T23:07:30.167Z,46.92
2023-05-05T23:10:22.296Z,47.00
2023-05-05T23:13:14.376Z,47.16
2023-05-05T23:16:06.942Z,47.27
2023-05-05T23:18:58.936Z,47.33
2023-05-05T23:21:53.691Z,47.43
2023-05-05T23:24:45.867Z,47.55
2023-05-05T23:27:38.915Z,47.58
2023-05-05T23:30:31.105Z,47.68
2023-05-05T23:33:23.239Z,47.74
2023-05-05T23:36:15.394Z,47.92
2023-05-05T23:39:07.704Z,47.89
2023-05-05T23:41:59.655Z,48.16
2023-05-05T23:44:34.250Z,48.11
2023-05-05T23:47:26.398Z,48.28
2023-05-05T23:50:18.410Z,48.39
2023-05-05T23:53:10.472Z,48.59
2023-05-05T23:56:02.518Z,48.67
2023-05-05T23:58:57.023Z,48.82
